Dillon, Montana
Current Conditions -  °F | °C
As of 5:53 AM on Friday 24 Oct 2014 (Local Time) from KDLN Reporting Station
Few Clouds Few Clouds  
Wind Chill:   Ceiling: Unl
Heat Index:   Visibility: 10mi
Dew Point:   Wind: 6mph
Humidity: 68%   Direction: 180°S
Pressure: 30.04"   Gusts: NA
Location:  45.22°N, 112.64°W
Report Text: KDLN 241153Z AUTO 18005KT 10SM FEW110 08/02 A3004 RMK AO2 SLP145 T00780022 10106 20072 53005
Loading
Personal Weather Stations






























Interactive Weather Map
Tropical Storm Tracking
New forecast layout! Learn more

10-Day Weather Forecast

Advertisements
Track Severe Weather on mobile